Time;durP1;ratioP1;P1;durP2;ratioP2;P2;SDS_P1;SDS_P2;PMS_P1;PMS_P2;Temp;Humidity;BMP_temperature;BMP_pressure;BME280_temperature;BME280_humidity;BME280_pressure;Samples;Min_cycle;Max_cycle;Signal;HPM_P1;HPM_P2
2021/08/06 00:02:27;;;;;;;1.40;1.40;;;18.50;99.90;;;;;;9709970;30;20261;-84
2021/08/06 00:07:30;;;;;;;2.80;1.70;;;18.50;99.90;;;;;;9736650;30;20300;-83
2021/08/06 00:12:33;;;;;;;1.60;1.50;;;18.50;99.90;;;;;;9756317;30;20317;-84
2021/08/06 00:17:35;;;;;;;1.67;1.57;;;18.50;99.90;;;;;;9698612;30;20677;-84
2021/08/06 00:22:38;;;;;;;1.37;1.37;;;18.40;99.90;;;;;;9706134;30;20662;-84
2021/08/06 00:27:41;;;;;;;1.53;1.47;;;18.40;99.90;;;;;;9726909;30;20202;-83
2021/08/06 00:32:43;;;;;;;1.80;1.70;;;18.40;99.90;;;;;;9708526;30;20670;-84
2021/08/06 00:37:54;;;;;;;1.93;1.60;;;18.50;99.90;;;;;;9672179;30;20317;-84
2021/08/06 00:42:56;;;;;;;2.40;2.00;;;18.40;99.90;;;;;;9696584;30;20234;-84
2021/08/06 00:48:05;;;;;;;1.80;1.70;;;18.40;99.90;;;;;;9690244;30;20593;-84
2021/08/06 00:53:11;;;;;;;3.90;1.60;;;18.40;99.90;;;;;;9698833;30;20334;-84
2021/08/06 00:58:16;;;;;;;2.00;1.57;;;18.30;99.90;;;;;;9711803;30;20643;-84
2021/08/06 01:03:23;;;;;;;1.57;1.47;;;18.30;99.90;;;;;;9709770;30;20217;-84
2021/08/06 01:08:36;;;;;;;2.00;1.73;;;18.20;99.90;;;;;;9748644;30;20229;-85
2021/08/06 01:13:44;;;;;;;1.70;1.60;;;18.20;99.90;;;;;;9750009;30;20234;-84
2021/08/06 01:18:53;;;;;;;1.80;1.70;;;18.10;99.90;;;;;;9749410;30;20336;-84
2021/08/06 01:24:04;;;;;;;2.00;1.90;;;18.10;99.90;;;;;;9749893;30;20240;-83
2021/08/06 01:29:09;;;;;;;1.80;1.70;;;18.20;99.90;;;;;;9734123;30;20245;-84
2021/08/06 01:34:20;;;;;;;1.90;1.70;;;18.10;99.90;;;;;;9725442;30;20700;-84
2021/08/06 01:39:23;;;;;;;1.93;1.83;;;18.10;99.90;;;;;;9727060;30;20232;-84
2021/08/06 01:44:35;;;;;;;2.03;1.80;;;18.10;99.90;;;;;;9727017;30;20218;-84
2021/08/06 01:49:43;;;;;;;1.80;1.70;;;18.10;99.90;;;;;;9711983;30;20673;-84
2021/08/06 01:54:51;;;;;;;5.73;1.90;;;18.20;99.90;;;;;;9711444;30;20253;-84
2021/08/06 02:00:01;;;;;;;2.13;2.03;;;18.30;99.90;;;;;;9711550;30;20231;-83
2021/08/06 02:05:11;;;;;;;2.10;2.00;;;18.30;99.90;;;;;;9740285;30;20235;-83
2021/08/06 02:10:16;;;;;;;2.27;2.17;;;18.40;99.90;;;;;;9746619;30;20321;-84
2021/08/06 02:15:20;;;;;;;2.30;2.17;;;18.40;99.90;;;;;;9746041;30;20216;-84
2021/08/06 02:20:28;;;;;;;2.07;1.97;;;18.50;99.90;;;;;;9746697;30;20245;-84
2021/08/06 02:25:35;;;;;;;2.27;2.17;;;18.60;99.90;;;;;;9746848;30;20197;-83
2021/08/06 02:30:40;;;;;;;2.80;1.77;;;18.60;99.90;;;;;;9746646;30;20230;-84
2021/08/06 02:35:43;;;;;;;1.87;1.77;;;18.70;99.90;;;;;;9731488;30;20244;-83
2021/08/06 02:40:45;;;;;;;2.13;2.03;;;18.70;99.90;;;;;;9729931;30;20291;-85
2021/08/06 02:45:50;;;;;;;2.73;2.27;;;18.80;99.90;;;;;;9744430;30;20227;-84
2021/08/06 02:50:52;;;;;;;2.30;2.10;;;18.80;99.90;;;;;;9744552;30;20244;-83
2021/08/06 02:55:57;;;;;;;2.33;2.23;;;18.80;99.90;;;;;;9730019;30;20268;-84
2021/08/06 03:01:03;;;;;;;2.50;2.40;;;18.80;99.90;;;;;;9729400;30;20318;-84
2021/08/06 03:06:07;;;;;;;3.33;2.70;;;18.80;99.90;;;;;;9708611;30;20305;-84
2021/08/06 03:11:09;;;;;;;2.27;2.07;;;18.90;99.90;;;;;;9722900;30;20226;-84
2021/08/06 03:16:15;;;;;;;2.67;2.43;;;18.90;99.90;;;;;;9707299;30;20633;-84
2021/08/06 03:21:17;;;;;;;2.23;2.03;;;18.90;99.90;;;;;;9728379;30;20754;-84
2021/08/06 03:26:21;;;;;;;2.77;2.67;;;18.90;99.90;;;;;;9714854;30;20210;-84
2021/08/06 03:31:27;;;;;;;2.40;2.30;;;18.90;99.90;;;;;;9717359;30;20269;-84
2021/08/06 03:36:29;;;;;;;2.23;2.13;;;18.90;99.90;;;;;;9737527;30;20240;-85
2021/08/06 03:41:32;;;;;;;2.43;2.33;;;18.90;99.90;;;;;;9752165;30;20225;-84
2021/08/06 03:46:37;;;;;;;2.50;2.40;;;19.00;99.90;;;;;;9737066;30;20217;-84
2021/08/06 03:51:40;;;;;;;2.30;2.20;;;19.00;99.90;;;;;;9751649;30;20225;-83
2021/08/06 03:56:42;;;;;;;3.10;2.40;;;19.00;99.90;;;;;;9735132;30;20284;-84
2021/08/06 04:01:46;;;;;;;3.03;2.40;;;19.00;99.90;;;;;;9730251;30;20238;-84
2021/08/06 04:06:48;;;;;;;3.20;2.20;;;19.00;99.90;;;;;;9724013;30;20230;-85
2021/08/06 04:11:50;;;;;;;2.53;2.43;;;19.00;99.90;;;;;;9713782;30;20262;-84
2021/08/06 04:16:54;;;;;;;2.13;1.93;;;19.00;99.90;;;;;;9727160;30;20218;-84
2021/08/06 04:21:56;;;;;;;2.57;2.37;;;19.00;99.90;;;;;;9727169;30;20288;-84
2021/08/06 04:26:58;;;;;;;2.77;2.57;;;19.00;99.90;;;;;;9712560;30;20217;-84
2021/08/06 04:32:02;;;;;;;2.60;2.40;;;19.00;99.90;;;;;;9731989;30;20272;-84
2021/08/06 04:37:05;;;;;;;2.93;2.73;;;19.00;99.90;;;;;;9748740;30;20225;-84
2021/08/06 04:42:07;;;;;;;2.80;2.70;;;19.00;99.90;;;;;;9748657;30;20257;-83
2021/08/06 04:47:11;;;;;;;2.83;2.57;;;18.90;99.90;;;;;;9731350;30;20248;-83
2021/08/06 04:52:13;;;;;;;2.63;2.53;;;18.90;99.90;;;;;;9731454;30;20769;-85
2021/08/06 04:57:15;;;;;;;2.77;2.67;;;18.80;99.90;;;;;;9749643;30;20210;-84
2021/08/06 05:02:20;;;;;;;5.97;2.60;;;18.80;99.90;;;;;;9728202;30;20246;-84
2021/08/06 05:07:23;;;;;;;3.23;3.03;;;18.80;99.90;;;;;;9716380;30;20210;-83
2021/08/06 05:12:26;;;;;;;3.70;3.40;;;18.70;99.90;;;;;;9712973;30;20273;-85
2021/08/06 05:18:07;;;;;;;3.23;2.93;;;18.50;99.90;;;;;;9726628;30;20210;-85
2021/08/06 05:23:10;;;;;;;3.83;2.93;;;18.20;99.90;;;;;;9731343;25;20253;-84
2021/08/06 05:28:12;;;;;;;3.77;3.57;;;17.90;99.90;;;;;;9723844;30;20245;-85
2021/08/06 05:33:16;;;;;;;3.30;3.10;;;17.80;99.90;;;;;;9717118;30;20312;-85
2021/08/06 05:38:18;;;;;;;18.67;15.77;;;17.70;99.90;;;;;;9663369;30;20225;-84
2021/08/06 05:43:21;;;;;;;3.90;3.60;;;17.60;99.90;;;;;;9671240;30;20712;-85
2021/08/06 05:48:25;;;;;;;3.50;3.30;;;17.60;99.90;;;;;;9672884;30;20224;-84
2021/08/06 05:53:29;;;;;;;3.23;3.03;;;17.50;99.90;;;;;;9686143;30;20242;-85
2021/08/06 05:58:34;;;;;;;3.67;3.37;;;17.40;99.90;;;;;;9672355;30;20214;-85
2021/08/06 06:03:40;;;;;;;4.07;3.87;;;17.30;99.90;;;;;;9672412;30;20637;-85
2021/08/06 06:09:01;;;;;;;4.07;3.80;;;17.40;99.90;;;;;;9672322;30;20616;-84
2021/08/06 06:14:04;;;;;;;4.37;2.87;;;17.30;99.90;;;;;;9672109;30;20242;-85
2021/08/06 06:19:10;;;;;;;3.53;3.33;;;17.40;99.90;;;;;;9671482;30;20333;-83
2021/08/06 06:24:15;;;;;;;3.77;3.47;;;17.50;99.90;;;;;;9657720;30;20250;-85
2021/08/06 06:29:18;;;;;;;3.13;2.93;;;17.60;99.90;;;;;;9673576;30;20296;-85
2021/08/06 06:34:21;;;;;;;3.43;3.10;;;17.80;99.90;;;;;;9716082;30;20246;-85
2021/08/06 06:39:24;;;;;;;4.03;3.57;;;17.90;99.90;;;;;;9706705;30;20622;-85
2021/08/06 06:44:27;;;;;;;3.40;3.10;;;18.20;99.90;;;;;;9692271;30;20221;-85
2021/08/06 06:49:31;;;;;;;10.60;2.90;;;18.40;99.90;;;;;;9706825;30;20280;-85
2021/08/06 06:54:33;;;;;;;6.50;3.03;;;18.60;99.90;;;;;;9706196;30;20266;-85
2021/08/06 06:59:35;;;;;;;6.17;3.17;;;18.50;99.90;;;;;;9707421;30;20249;-85
2021/08/06 07:04:41;;;;;;;3.00;2.53;;;18.50;99.90;;;;;;9672065;30;20225;-85
2021/08/06 07:09:43;;;;;;;2.90;2.80;;;18.50;99.90;;;;;;9694877;30;20234;-86
2021/08/06 07:15:08;;;;;;;2.30;2.20;;;18.80;99.90;;;;;;9670405;30;20242;-85
2021/08/06 07:20:18;;;;;;;2.57;2.37;;;19.20;99.90;;;;;;9670472;30;20242;-85
2021/08/06 07:25:28;;;;;;;4.87;2.47;;;19.30;99.90;;;;;;9670260;30;20547;-85
2021/08/06 07:30:38;;;;;;;2.40;2.20;;;19.50;99.90;;;;;;9684574;30;20643;-85
2021/08/06 07:35:44;;;;;;;2.57;2.40;;;19.60;99.90;;;;;;9707330;30;20214;-85
2021/08/06 07:40:50;;;;;;;2.33;2.13;;;19.70;99.90;;;;;;9705926;30;20292;-84
2021/08/06 07:46:07;;;;;;;2.30;2.20;;;19.80;99.90;;;;;;9705182;30;20222;-85
2021/08/06 07:51:16;;;;;;;4.33;2.23;;;19.90;99.90;;;;;;9691631;30;20238;-85
2021/08/06 07:56:28;;;;;;;2.87;2.20;;;20.00;99.90;;;;;;9719680;30;20214;-85
2021/08/06 08:01:39;;;;;;;4.30;3.70;;;20.00;99.90;;;;;;9691073;30;20729;-85
2021/08/06 08:06:46;;;;;;;4.03;3.40;;;19.80;99.90;;;;;;9708641;30;20217;-85
2021/08/06 08:11:49;;;;;;;2.93;2.80;;;19.40;99.90;;;;;;9712032;30;20246;-84
2021/08/06 08:16:51;;;;;;;2.80;2.60;;;19.10;99.90;;;;;;9711076;30;20269;-85
2021/08/06 08:21:55;;;;;;;2.20;2.10;;;18.70;99.90;;;;;;9697131;30;20320;-85
2021/08/06 08:26:59;;;;;;;2.97;2.20;;;18.60;99.90;;;;;;9715425;30;20214;-85
2021/08/06 08:32:01;;;;;;;2.50;2.30;;;18.50;99.90;;;;;;9710491;30;20241;-85
2021/08/06 08:37:08;;;;;;;2.60;2.13;;;18.60;99.90;;;;;;9725152;30;20210;-85
2021/08/06 08:42:17;;;;;;;2.20;2.00;;;18.80;99.90;;;;;;9710673;30;20242;-84
2021/08/06 08:47:24;;;;;;;2.03;1.83;;;19.00;99.90;;;;;;9710578;30;20210;-85
2021/08/06 08:52:44;;;;;;;2.00;1.90;;;19.20;99.90;;;;;;9710484;30;20316;-86
2021/08/06 08:57:56;;;;;;;2.10;1.93;;;19.60;99.90;;;;;;9710311;30;20214;-85
2021/08/06 09:03:05;;;;;;;2.27;2.03;;;20.00;99.90;;;;;;9709770;30;20660;-85
2021/08/06 09:08:32;;;;;;;3.70;2.00;;;20.60;99.90;;;;;;9710644;30;20206;-85
2021/08/06 09:19:56;;;;;;;1.77;1.67;;;21.80;99.90;;;;;;9693071;30;20719;-86
2021/08/06 09:25:06;;;;;;;1.60;1.50;;;22.20;99.90;;;;;;9695136;30;20268;-86
2021/08/06 09:30:13;;;;;;;2.60;1.60;;;22.50;99.90;;;;;;9694724;30;20273;-86
2021/08/06 09:35:30;;;;;;;1.47;1.40;;;22.50;99.90;;;;;;9691198;30;20265;-85
2021/08/06 09:41:32;;;;;;;2.20;1.80;;;22.40;99.90;;;;;;9702042;30;20226;-86
2021/08/06 09:46:44;;;;;;;1.80;1.70;;;22.60;99.90;;;;;;9707867;30;20206;-85
2021/08/06 09:51:48;;;;;;;2.00;1.90;;;22.70;99.90;;;;;;9707955;30;20233;-86
2021/08/06 09:57:05;;;;;;;2.10;1.90;;;22.60;99.90;;;;;;9722831;30;20213;-85
2021/08/06 10:02:16;;;;;;;3.37;2.23;;;22.50;99.90;;;;;;9693502;30;20236;-85
2021/08/06 10:07:18;;;;;;;2.30;2.10;;;22.70;99.90;;;;;;9707862;30;20759;-86
2021/08/06 10:12:22;;;;;;;2.07;1.97;;;23.10;99.90;;;;;;9706985;30;20234;-86
2021/08/06 10:17:25;;;;;;;2.10;1.90;;;23.80;99.90;;;;;;9707484;30;20221;-86
2021/08/06 10:22:27;;;;;;;1.90;1.80;;;24.60;99.90;;;;;;9707371;30;20783;-86
2021/08/06 10:27:31;;;;;;;1.50;1.40;;;25.00;99.90;;;;;;9706843;30;20660;-85
2021/08/06 10:32:34;;;;;;;1.97;1.87;;;24.70;99.90;;;;;;9711973;30;20234;-85
2021/08/06 10:37:56;;;;;;;8.80;2.13;;;24.40;99.90;;;;;;9722765;30;20226;-85
2021/08/06 10:42:59;;;;;;;2.13;1.80;;;24.10;99.90;;;;;;9718617;30;20226;-86
2021/08/06 10:48:07;;;;;;;2.07;1.97;;;24.00;99.90;;;;;;9706557;30;20208;-86
2021/08/06 10:53:22;;;;;;;3.70;2.00;;;23.90;99.90;;;;;;9691988;30;20742;-86
2021/08/06 10:58:57;;;;;;;2.17;2.07;;;23.60;99.90;;;;;;9706305;30;20758;-86
2021/08/06 11:04:00;;;;;;;2.00;1.90;;;23.60;99.90;;;;;;9685398;30;20613;-86
2021/08/06 11:09:05;;;;;;;1.70;1.60;;;23.50;99.90;;;;;;9706400;30;20755;-85
2021/08/06 11:14:09;;;;;;;2.50;1.90;;;23.40;99.90;;;;;;9705934;30;20311;-85
2021/08/06 11:19:12;;;;;;;3.33;2.00;;;23.10;99.90;;;;;;9711093;25;20237;-83
2021/08/06 11:24:14;;;;;;;2.43;2.23;;;22.70;99.90;;;;;;9694212;30;20706;-83
2021/08/06 11:29:18;;;;;;;2.87;2.00;;;22.60;99.90;;;;;;9697718;30;20237;-84
2021/08/06 11:34:20;;;;;;;1.90;1.80;;;22.70;99.90;;;;;;9719944;30;20238;-83
2021/08/06 11:39:25;;;;;;;2.03;1.93;;;22.90;99.90;;;;;;9723059;30;20234;-82
2021/08/06 11:44:28;;;;;;;1.97;1.67;;;23.00;99.90;;;;;;9722124;30;20210;-82
2021/08/06 11:49:30;;;;;;;1.87;1.77;;;22.90;99.90;;;;;;9727901;30;20234;-82
2021/08/06 11:54:32;;;;;;;1.50;1.40;;;22.90;99.90;;;;;;9731478;30;20316;-81
2021/08/06 11:59:36;;;;;;;1.77;1.67;;;22.70;99.90;;;;;;9732647;30;20270;-81
2021/08/06 12:04:38;;;;;;;2.47;1.77;;;22.50;99.90;;;;;;9716925;30;20249;-82
2021/08/06 12:09:46;;;;;;;1.83;1.77;;;22.30;99.90;;;;;;9689562;30;20233;-82
2021/08/06 12:14:49;;;;;;;1.70;1.60;;;22.30;99.90;;;;;;9702513;30;20265;-82
2021/08/06 12:19:52;;;;;;;3.97;2.20;;;22.30;99.90;;;;;;9716404;30;20266;-82
2021/08/06 12:24:54;;;;;;;1.80;1.70;;;22.30;99.90;;;;;;9708340;30;20645;-82
2021/08/06 12:29:58;;;;;;;2.90;2.00;;;22.30;99.90;;;;;;9735344;30;20323;-82
2021/08/06 12:35:00;;;;;;;1.83;1.73;;;22.10;99.90;;;;;;9725502;30;20241;-82
2021/08/06 12:40:02;;;;;;;2.03;1.83;;;22.10;99.90;;;;;;9734796;30;20261;-82
2021/08/06 12:45:08;;;;;;;4.13;1.70;;;22.10;99.90;;;;;;9747001;30;20300;-82
2021/08/06 12:50:12;;;;;;;1.90;1.73;;;22.20;99.90;;;;;;9760947;30;20229;-82
2021/08/06 12:55:16;;;;;;;2.87;1.90;;;22.30;99.90;;;;;;9746369;30;20241;-82
2021/08/06 13:00:24;;;;;;;2.47;2.00;;;22.40;99.90;;;;;;9731808;30;20233;-82
2021/08/06 13:05:27;;;;;;;2.20;2.10;;;22.40;99.90;;;;;;9733763;30;20221;-82
2021/08/06 13:10:31;;;;;;;2.10;1.87;;;22.30;99.90;;;;;;9725141;30;20242;-82
2021/08/06 13:15:35;;;;;;;2.87;2.20;;;22.20;99.90;;;;;;9707810;30;20244;-82
2021/08/06 13:20:40;;;;;;;1.77;1.67;;;22.10;99.90;;;;;;9745385;30;20241;-82
2021/08/06 13:25:45;;;;;;;1.80;1.70;;;22.20;99.90;;;;;;9730506;30;20300;-82
2021/08/06 13:30:49;;;;;;;1.90;1.80;;;22.00;99.90;;;;;;9758996;30;20233;-82
2021/08/06 13:35:52;;;;;;;2.80;1.80;;;22.00;99.90;;;;;;9713927;30;20257;-82
2021/08/06 13:40:54;;;;;;;2.73;2.00;;;22.10;99.90;;;;;;9708365;30;20242;-82
2021/08/06 13:45:57;;;;;;;1.70;1.60;;;22.20;99.90;;;;;;9718995;30;20207;-83
2021/08/06 13:50:59;;;;;;;3.90;2.17;;;22.30;99.90;;;;;;9713451;30;20234;-83
2021/08/06 13:56:02;;;;;;;1.47;1.37;;;22.50;99.90;;;;;;9709127;30;20241;-83
2021/08/06 14:01:06;;;;;;;1.80;1.70;;;22.50;99.90;;;;;;9710832;30;20728;-82
2021/08/06 14:06:12;;;;;;;1.70;1.60;;;22.50;99.90;;;;;;9677392;30;20711;-83
2021/08/06 14:11:16;;;;;;;1.70;1.60;;;22.50;99.90;;;;;;9677909;30;20234;-83
2021/08/06 14:16:20;;;;;;;1.90;1.60;;;22.70;99.90;;;;;;9670971;30;20225;-83
2021/08/06 14:21:23;;;;;;;1.70;1.60;;;22.90;99.90;;;;;;9681080;30;20658;-82
2021/08/06 14:26:25;;;;;;;1.23;1.13;;;22.90;99.90;;;;;;9696804;30;20247;-82
2021/08/06 14:31:29;;;;;;;1.77;1.67;;;23.00;99.90;;;;;;9701834;30;20234;-83
2021/08/06 14:36:32;;;;;;;1.93;1.80;;;23.00;99.90;;;;;;9709830;30;20631;-83
2021/08/06 14:41:35;;;;;;;1.60;1.50;;;23.00;99.90;;;;;;9721516;30;20278;-82
2021/08/06 14:46:40;;;;;;;1.70;1.60;;;22.90;99.90;;;;;;9709952;30;20265;-82
2021/08/06 14:51:42;;;;;;;1.50;1.40;;;22.80;99.90;;;;;;9706920;30;20295;-82
2021/08/06 14:56:45;;;;;;;1.53;1.43;;;22.80;99.90;;;;;;9708920;30;20242;-82
2021/08/06 15:01:48;;;;;;;2.13;1.67;;;22.70;99.90;;;;;;9709108;30;20268;-83
2021/08/06 15:06:50;;;;;;;1.50;1.50;;;22.70;99.90;;;;;;9709736;30;20217;-83
2021/08/06 15:11:52;;;;;;;2.80;2.00;;;22.80;99.90;;;;;;9693871;30;20253;-83
2021/08/06 15:16:56;;;;;;;1.60;1.50;;;22.90;99.90;;;;;;9696769;30;20313;-82
2021/08/06 15:22:01;;;;;;;1.70;1.60;;;23.00;99.90;;;;;;9721489;30;20245;-83
2021/08/06 15:27:04;;;;;;;1.50;1.40;;;23.00;99.90;;;;;;9700932;30;20218;-82
2021/08/06 15:32:08;;;;;;;9.00;2.00;;;22.90;99.90;;;;;;9704226;30;20238;-82
2021/08/06 15:37:10;;;;;;;2.00;1.80;;;22.80;99.90;;;;;;9696810;30;20327;-82
2021/08/06 15:42:12;;;;;;;3.00;1.90;;;22.80;99.90;;;;;;9685852;30;20235;-81
2021/08/06 15:47:19;;;;;;;2.00;1.90;;;22.90;99.90;;;;;;9692335;30;20305;-83
2021/08/06 15:52:21;;;;;;;1.83;1.73;;;22.90;99.90;;;;;;9714245;30;20296;-84
2021/08/06 15:57:24;;;;;;;1.70;1.60;;;22.70;99.90;;;;;;9726866;30;20224;-85
2021/08/06 16:02:27;;;;;;;2.10;1.93;;;22.60;99.90;;;;;;9712455;30;20230;-84
2021/08/06 16:07:29;;;;;;;3.87;1.70;;;22.60;99.90;;;;;;9698097;30;20233;-84
2021/08/06 16:12:32;;;;;;;2.27;1.90;;;22.60;99.90;;;;;;9711869;30;20248;-84
2021/08/06 16:17:36;;;;;;;1.73;1.63;;;22.60;99.90;;;;;;9698280;30;20224;-84
2021/08/06 16:22:38;;;;;;;1.90;1.80;;;22.50;99.90;;;;;;9700036;30;20277;-83
2021/08/06 16:27:41;;;;;;;3.93;2.00;;;22.50;99.90;;;;;;9711612;30;20905;-83
2021/08/06 16:32:45;;;;;;;2.70;1.83;;;22.40;99.90;;;;;;9711301;30;20280;-84
2021/08/06 16:37:47;;;;;;;4.20;2.23;;;22.40;99.90;;;;;;9726305;30;20324;-84
2021/08/06 16:42:50;;;;;;;2.23;2.13;;;22.40;99.90;;;;;;9697106;30;20238;-83
2021/08/06 16:47:53;;;;;;;2.57;2.00;;;22.20;99.90;;;;;;9728290;30;20623;-83
2021/08/06 16:52:55;;;;;;;2.00;1.90;;;22.00;99.90;;;;;;9714235;30;20226;-83
2021/08/06 16:57:58;;;;;;;2.20;1.90;;;22.00;99.90;;;;;;9732432;30;20264;-83
2021/08/06 17:03:03;;;;;;;2.30;1.80;;;22.10;99.90;;;;;;9703647;30;20320;-83
2021/08/06 17:08:05;;;;;;;2.10;2.00;;;22.10;99.90;;;;;;9717311;30;20218;-83
2021/08/06 17:13:07;;;;;;;2.10;1.90;;;22.10;99.90;;;;;;9697909;30;20586;-83
2021/08/06 17:18:11;;;;;;;1.90;1.80;;;22.00;99.90;;;;;;9718260;30;20234;-82
2021/08/06 17:23:22;;;;;;;1.67;1.50;;;21.90;99.90;;;;;;9730031;25;20283;-84
2021/08/06 17:29:14;;;;;;;1.40;1.30;;;21.80;99.90;;;;;;9734186;30;20249;-83
2021/08/06 17:41:10;;;;;;;1.93;1.83;;;21.80;99.90;;;;;;9531550;30;20230;-82
2021/08/06 17:46:23;;;;;;;5.60;2.07;;;21.70;99.90;;;;;;9709321;30;20603;-84
2021/08/06 17:51:36;;;;;;;2.17;2.00;;;21.70;99.90;;;;;;9680648;30;20242;-84
2021/08/06 17:57:46;;;;;;;2.67;2.47;;;21.70;99.90;;;;;;9690548;30;20333;-87
2021/08/06 18:16:08;;;;;;;2.80;2.47;;;21.40;99.90;;;;;;9443549;31;20236;-85
2021/08/06 18:21:29;;;;;;;3.00;2.40;;;21.30;99.90;;;;;;9569594;30;20280;-85
2021/08/06 18:27:16;;;;;;;2.23;2.03;;;21.20;99.90;;;;;;9579161;30;20212;-83
2021/08/06 19:18:29;;;;;;;2.37;2.17;;;20.00;99.90;;;;;;9601222;30;20222;-84
2021/08/06 19:23:33;;;;;;;2.20;2.10;;;19.90;99.90;;;;;;9707118;30;20259;-85
2021/08/06 19:28:38;;;;;;;2.20;2.10;;;19.80;99.90;;;;;;9677429;30;20223;-85
2021/08/06 19:33:43;;;;;;;2.50;2.30;;;19.80;99.90;;;;;;9693030;30;20329;-84
2021/08/06 19:38:50;;;;;;;3.07;2.10;;;19.70;99.90;;;;;;9695401;30;20233;-83
2021/08/06 19:43:52;;;;;;;2.17;2.07;;;19.70;99.90;;;;;;9703678;30;20250;-86
2021/08/06 19:49:01;;;;;;;2.37;2.17;;;19.60;99.90;;;;;;9678895;30;20288;-86
2021/08/06 19:54:10;;;;;;;1.97;1.80;;;19.60;99.90;;;;;;9698842;30;20269;-87
2021/08/06 19:59:17;;;;;;;2.33;2.13;;;19.50;99.90;;;;;;9680097;30;20865;-86
2021/08/06 20:04:27;;;;;;;4.07;2.50;;;19.50;99.90;;;;;;9679864;30;20211;-89
2021/08/06 20:09:29;;;;;;;2.70;2.50;;;19.40;99.90;;;;;;9667297;30;20732;-85
2021/08/06 20:14:32;;;;;;;2.40;2.20;;;19.40;99.90;;;;;;9694249;30;20265;-86
2021/08/06 20:19:36;;;;;;;3.90;2.20;;;19.40;99.90;;;;;;9708452;30;20720;-85
2021/08/06 20:24:39;;;;;;;3.40;2.30;;;19.30;99.90;;;;;;9692022;30;20227;-87
2021/08/06 20:29:41;;;;;;;2.27;2.07;;;19.30;99.90;;;;;;9676386;30;20238;-85
2021/08/06 20:34:45;;;;;;;3.03;2.00;;;19.30;99.90;;;;;;9692647;30;20234;-85
2021/08/06 20:39:47;;;;;;;2.80;2.60;;;19.30;99.90;;;;;;9705845;30;20574;-85
2021/08/06 20:44:49;;;;;;;2.77;2.30;;;19.20;99.90;;;;;;9682363;30;20218;-85
2021/08/06 20:49:53;;;;;;;3.30;2.90;;;19.20;99.90;;;;;;9707615;30;20324;-85
2021/08/06 20:54:56;;;;;;;7.80;2.53;;;19.20;99.90;;;;;;9700337;30;20655;-85
2021/08/06 20:59:58;;;;;;;3.73;2.90;;;19.10;99.90;;;;;;9710421;30;20296;-86
2021/08/06 21:05:01;;;;;;;4.97;2.87;;;19.10;99.90;;;;;;9672512;30;20217;-85
2021/08/06 21:10:04;;;;;;;2.77;2.60;;;19.00;99.90;;;;;;9696887;30;20236;-86
2021/08/06 21:15:13;;;;;;;3.67;2.70;;;19.00;99.90;;;;;;9701841;30;20242;-86
2021/08/06 21:20:17;;;;;;;2.90;2.70;;;19.00;99.90;;;;;;9715945;30;20687;-85
2021/08/06 21:25:22;;;;;;;5.13;2.70;;;18.90;99.90;;;;;;9677671;30;20221;-84
2021/08/06 21:30:26;;;;;;;5.37;3.23;;;18.90;99.90;;;;;;9683179;30;20242;-86
2021/08/06 21:35:30;;;;;;;3.20;2.80;;;18.90;99.90;;;;;;9689862;30;20246;-86
2021/08/06 21:40:32;;;;;;;4.60;3.10;;;18.90;99.90;;;;;;9706798;30;20247;-86
2021/08/06 21:45:35;;;;;;;2.80;2.60;;;18.90;99.90;;;;;;9717298;30;20578;-84
2021/08/06 21:50:38;;;;;;;2.90;2.60;;;18.90;99.90;;;;;;9679705;30;20669;-85
2021/08/06 21:55:41;;;;;;;2.90;2.60;;;19.00;99.90;;;;;;9687426;30;20692;-85
2021/08/06 22:00:43;;;;;;;6.03;2.00;;;19.00;99.90;;;;;;9683741;30;20238;-84
2021/08/06 22:05:46;;;;;;;3.00;2.20;;;19.10;99.90;;;;;;9705419;30;20242;-85
2021/08/06 22:10:49;;;;;;;3.90;2.17;;;19.00;99.90;;;;;;9688031;30;20230;-86
2021/08/06 22:15:51;;;;;;;2.70;2.50;;;19.00;99.90;;;;;;9674562;30;20245;-83
2021/08/06 22:20:55;;;;;;;2.70;2.50;;;19.00;99.90;;;;;;9691737;30;20231;-82
2021/08/06 22:25:57;;;;;;;5.10;2.50;;;18.90;99.90;;;;;;9676145;30;20213;-84
2021/08/06 22:31:00;;;;;;;4.10;2.40;;;18.90;99.90;;;;;;9711441;30;20238;-84
2021/08/06 22:36:04;;;;;;;2.03;1.90;;;18.90;99.90;;;;;;9676390;30;20231;-83
2021/08/06 22:41:06;;;;;;;4.20;2.10;;;18.80;99.90;;;;;;9671506;30;20245;-83
2021/08/06 22:46:12;;;;;;;2.10;2.00;;;18.80;99.90;;;;;;9674468;30;20217;-84
2021/08/06 22:51:25;;;;;;;2.20;2.00;;;18.70;99.90;;;;;;9678844;30;20238;-85
2021/08/06 22:56:55;;;;;;;4.00;2.10;;;18.70;99.90;;;;;;9642614;30;20263;-85
2021/08/06 23:02:40;;;;;;;2.13;2.03;;;18.70;99.90;;;;;;9692755;30;20238;-83
2021/08/06 23:07:49;;;;;;;2.33;2.20;;;18.70;99.90;;;;;;9677676;30;20754;-84
2021/08/06 23:12:57;;;;;;;3.73;2.40;;;18.60;99.90;;;;;;9673878;30;20238;-85
2021/08/06 23:18:00;;;;;;;4.50;2.00;;;18.50;99.90;;;;;;9700423;30;20257;-85
2021/08/06 23:23:34;;;;;;;2.50;2.30;;;18.50;99.90;;;;;;9760895;25;20245;-86
2021/08/06 23:28:37;;;;;;;2.47;2.27;;;18.30;99.90;;;;;;9720845;30;20213;-86
